sensor_id;sensor_type;location;lat;lon;timestamp;pressure;altitude;pressure_sealevel;temperature;humidity
80620;BME280;69979;53.682;-2.690;2023-07-08T00:00:40;100776.50;;;19.91;36.26
80620;BME280;69979;53.682;-2.690;2023-07-08T00:03:06;100778.27;;;20.58;35.75
80620;BME280;69979;53.682;-2.690;2023-07-08T00:05:31;100776.29;;;19.99;36.54
80620;BME280;69979;53.682;-2.690;2023-07-08T00:07:57;100774.89;;;20.38;36.25
80620;BME280;69979;53.682;-2.690;2023-07-08T00:10:24;100775.69;;;20.74;35.65
80620;BME280;69979;53.682;-2.690;2023-07-08T00:12:51;100777.11;;;20.74;35.36
80620;BME280;69979;53.682;-2.690;2023-07-08T00:15:13;100778.22;;;20.25;35.59
80620;BME280;69979;53.682;-2.690;2023-07-08T00:17:38;100780.61;;;20.24;35.95
80620;BME280;69979;53.682;-2.690;2023-07-08T00:20:12;100779.01;;;20.41;35.77
80620;BME280;69979;53.682;-2.690;2023-07-08T00:22:29;100777.63;;;20.85;35.16
80620;BME280;69979;53.682;-2.690;2023-07-08T00:24:54;100776.93;;;20.61;35.69
80620;BME280;69979;53.682;-2.690;2023-07-08T00:27:20;100775.07;;;20.63;35.36
80620;BME280;69979;53.682;-2.690;2023-07-08T00:29:46;100777.06;;;20.08;35.78
80620;BME280;69979;53.682;-2.690;2023-07-08T00:32:12;100776.02;;;21.31;34.41
80620;BME280;69979;53.682;-2.690;2023-07-08T00:34:35;100772.99;;;20.85;34.74
80620;BME280;69979;53.682;-2.690;2023-07-08T00:37:01;100771.97;;;20.58;35.16
80620;BME280;69979;53.682;-2.690;2023-07-08T00:39:26;100773.72;;;21.03;34.65
80620;BME280;69979;53.682;-2.690;2023-07-08T00:41:52;100765.03;;;20.94;34.35
80620;BME280;69979;53.682;-2.690;2023-07-08T00:44:17;100764.03;;;20.30;35.10
80620;BME280;69979;53.682;-2.690;2023-07-08T00:46:49;100766.00;;;21.33;34.02
80620;BME280;69979;53.682;-2.690;2023-07-08T00:49:21;100770.33;;;20.94;34.16
80620;BME280;69979;53.682;-2.690;2023-07-08T00:51:34;100767.08;;;21.02;33.62
80620;BME280;69979;53.682;-2.690;2023-07-08T00:53:59;100765.30;;;21.36;33.08
80620;BME280;69979;53.682;-2.690;2023-07-08T00:56:26;100761.65;;;20.87;33.56
80620;BME280;69979;53.682;-2.690;2023-07-08T00:58:52;100761.84;;;21.89;32.42
80620;BME280;69979;53.682;-2.690;2023-07-08T01:01:14;100758.57;;;22.36;31.83
80620;BME280;69979;53.682;-2.690;2023-07-08T01:03:43;100757.03;;;21.60;32.33
80620;BME280;69979;53.682;-2.690;2023-07-08T01:06:05;100750.45;;;21.06;33.05
80620;BME280;69979;53.682;-2.690;2023-07-08T01:08:30;100741.74;;;20.90;33.05
80620;BME280;69979;53.682;-2.690;2023-07-08T01:10:59;100741.64;;;20.98;33.12
80620;BME280;69979;53.682;-2.690;2023-07-08T01:13:21;100740.84;;;20.92;33.07
80620;BME280;69979;53.682;-2.690;2023-07-08T01:15:47;100737.45;;;20.86;33.10
80620;BME280;69979;53.682;-2.690;2023-07-08T01:18:13;100738.14;;;20.86;33.15
80620;BME280;69979;53.682;-2.690;2023-07-08T01:20:36;100742.90;;;20.99;33.15
80620;BME280;69979;53.682;-2.690;2023-07-08T01:23:01;100736.22;;;20.76;33.24
80620;BME280;69979;53.682;-2.690;2023-07-08T01:25:27;100734.45;;;21.23;32.45
80620;BME280;69979;53.682;-2.690;2023-07-08T01:27:56;100736.19;;;20.64;33.17
80620;BME280;69979;53.682;-2.690;2023-07-08T01:30:17;100733.72;;;20.26;33.66
80620;BME280;69979;53.682;-2.690;2023-07-08T01:32:47;100733.28;;;20.50;33.45
80620;BME280;69979;53.682;-2.690;2023-07-08T01:35:09;100731.41;;;21.07;32.78
80620;BME280;69979;53.682;-2.690;2023-07-08T01:37:36;100724.16;;;20.48;33.34
80620;BME280;69979;53.682;-2.690;2023-07-08T01:42:24;100718.91;;;20.78;32.66
80620;BME280;69979;53.682;-2.690;2023-07-08T01:44:50;100717.74;;;21.24;32.31
80620;BME280;69979;53.682;-2.690;2023-07-08T01:47:18;100717.77;;;21.13;32.04
80620;BME280;69979;53.682;-2.690;2023-07-08T01:49:42;100720.55;;;20.99;32.45
80620;BME280;69979;53.682;-2.690;2023-07-08T01:52:06;100719.02;;;20.67;32.58
80620;BME280;69979;53.682;-2.690;2023-07-08T01:54:30;100715.33;;;20.58;32.77
80620;BME280;69979;53.682;-2.690;2023-07-08T01:56:56;100710.86;;;21.11;32.19
80620;BME280;69979;53.682;-2.690;2023-07-08T01:59:21;100706.26;;;20.65;32.71
80620;BME280;69979;53.682;-2.690;2023-07-08T02:01:46;100705.67;;;21.40;31.96
80620;BME280;69979;53.682;-2.690;2023-07-08T02:04:12;100704.27;;;20.85;32.10
80620;BME280;69979;53.682;-2.690;2023-07-08T02:06:37;100708.10;;;20.56;32.52
80620;BME280;69979;53.682;-2.690;2023-07-08T02:09:03;100698.70;;;20.77;32.25
80620;BME280;69979;53.682;-2.690;2023-07-08T02:11:28;100693.99;;;21.16;31.89
80620;BME280;69979;53.682;-2.690;2023-07-08T02:13:53;100703.62;;;20.37;32.80
80620;BME280;69979;53.682;-2.690;2023-07-08T02:16:18;100699.50;;;20.75;32.52
80620;BME280;69979;53.682;-2.690;2023-07-08T02:18:43;100695.73;;;20.94;31.74
80620;BME280;69979;53.682;-2.690;2023-07-08T02:21:09;100692.50;;;21.10;32.06
80620;BME280;69979;53.682;-2.690;2023-07-08T02:23:34;100689.81;;;20.52;32.32
80620;BME280;69979;53.682;-2.690;2023-07-08T02:25:59;100692.06;;;21.01;32.02
80620;BME280;69979;53.682;-2.690;2023-07-08T02:28:25;100688.03;;;20.71;32.73
80620;BME280;69979;53.682;-2.690;2023-07-08T02:30:50;100686.80;;;21.24;32.25
80620;BME280;69979;53.682;-2.690;2023-07-08T02:33:15;100682.81;;;20.87;32.14
80620;BME280;69979;53.682;-2.690;2023-07-08T02:35:40;100675.94;;;20.84;32.05
80620;BME280;69979;53.682;-2.690;2023-07-08T02:38:06;100669.81;;;20.99;32.20
80620;BME280;69979;53.682;-2.690;2023-07-08T02:40:31;100668.17;;;20.73;32.66
80620;BME280;69979;53.682;-2.690;2023-07-08T02:42:56;100660.88;;;20.85;32.53
80620;BME280;69979;53.682;-2.690;2023-07-08T02:45:22;100657.48;;;20.41;32.78
80620;BME280;69979;53.682;-2.690;2023-07-08T02:47:47;100657.33;;;21.69;31.74
80620;BME280;69979;53.682;-2.690;2023-07-08T02:50:12;100652.86;;;20.64;32.85
80620;BME280;69979;53.682;-2.690;2023-07-08T02:52:37;100648.46;;;20.53;33.18
80620;BME280;69979;53.682;-2.690;2023-07-08T02:55:03;100648.07;;;20.99;32.63
80620;BME280;69979;53.682;-2.690;2023-07-08T02:57:28;100647.39;;;21.01;32.02
80620;BME280;69979;53.682;-2.690;2023-07-08T02:59:53;100646.85;;;20.95;32.41
80620;BME280;69979;53.682;-2.690;2023-07-08T03:02:19;100642.03;;;21.34;31.97
80620;BME280;69979;53.682;-2.690;2023-07-08T03:04:44;100644.90;;;21.15;32.31
80620;BME280;69979;53.682;-2.690;2023-07-08T03:07:10;100635.38;;;20.98;32.19
80620;BME280;69979;53.682;-2.690;2023-07-08T03:09:34;100636.91;;;21.77;31.77
80620;BME280;69979;53.682;-2.690;2023-07-08T03:11:59;100631.47;;;21.56;32.18
80620;BME280;69979;53.682;-2.690;2023-07-08T03:14:25;100628.27;;;21.26;33.02
80620;BME280;69979;53.682;-2.690;2023-07-08T03:16:50;100628.73;;;21.34;32.93
80620;BME280;69979;53.682;-2.690;2023-07-08T03:19:15;100623.36;;;20.99;33.49
80620;BME280;69979;53.682;-2.690;2023-07-08T03:21:41;100627.79;;;21.10;33.26
80620;BME280;69979;53.682;-2.690;2023-07-08T03:24:09;100623.46;;;21.38;33.01
80620;BME280;69979;53.682;-2.690;2023-07-08T03:26:31;100618.16;;;21.55;33.12
80620;BME280;69979;53.682;-2.690;2023-07-08T03:28:57;100610.96;;;21.03;33.89
80620;BME280;69979;53.682;-2.690;2023-07-08T03:31:22;100610.95;;;21.29;33.59
80620;BME280;69979;53.682;-2.690;2023-07-08T03:33:47;100605.69;;;20.76;33.98
80620;BME280;69979;53.682;-2.690;2023-07-08T03:36:16;100602.81;;;21.20;33.80
80620;BME280;69979;53.682;-2.690;2023-07-08T03:38:38;100599.57;;;21.78;32.90
80620;BME280;69979;53.682;-2.690;2023-07-08T03:41:03;100600.83;;;20.63;34.02
80620;BME280;69979;53.682;-2.690;2023-07-08T03:43:29;100599.92;;;21.81;33.27
80620;BME280;69979;53.682;-2.690;2023-07-08T03:45:54;100599.89;;;21.48;33.72
80620;BME280;69979;53.682;-2.690;2023-07-08T03:48:20;100592.99;;;21.40;33.67
80620;BME280;69979;53.682;-2.690;2023-07-08T03:50:45;100593.92;;;21.18;34.31
80620;BME280;69979;53.682;-2.690;2023-07-08T03:53:11;100588.61;;;21.13;34.49
80620;BME280;69979;53.682;-2.690;2023-07-08T03:55:36;100589.83;;;20.48;35.65
80620;BME280;69979;53.682;-2.690;2023-07-08T03:58:01;100590.27;;;20.65;34.95
80620;BME280;69979;53.682;-2.690;2023-07-08T04:00:26;100586.32;;;20.81;35.10
80620;BME280;69979;53.682;-2.690;2023-07-08T04:02:51;100589.05;;;21.13;35.09
80620;BME280;69979;53.682;-2.690;2023-07-08T04:05:18;100590.67;;;20.69;35.68
80620;BME280;69979;53.682;-2.690;2023-07-08T04:07:42;100589.49;;;20.31;36.22
80620;BME280;69979;53.682;-2.690;2023-07-08T04:10:08;100585.20;;;20.60;36.01
80620;BME280;69979;53.682;-2.690;2023-07-08T04:12:32;100587.51;;;20.82;35.78
80620;BME280;69979;53.682;-2.690;2023-07-08T04:14:58;100588.85;;;21.24;35.42
80620;BME280;69979;53.682;-2.690;2023-07-08T04:17:24;100590.29;;;20.90;35.87
80620;BME280;69979;53.682;-2.690;2023-07-08T04:19:49;100589.87;;;20.92;35.94
80620;BME280;69979;53.682;-2.690;2023-07-08T04:22:14;100594.19;;;20.45;36.50
80620;BME280;69979;53.682;-2.690;2023-07-08T04:24:40;100592.66;;;20.69;36.07
80620;BME280;69979;53.682;-2.690;2023-07-08T04:27:05;100589.48;;;20.43;36.46
80620;BME280;69979;53.682;-2.690;2023-07-08T04:29:30;100590.62;;;21.39;35.52
80620;BME280;69979;53.682;-2.690;2023-07-08T04:31:55;100585.40;;;20.88;35.76
80620;BME280;69979;53.682;-2.690;2023-07-08T04:34:20;100587.19;;;20.49;36.80
80620;BME280;69979;53.682;-2.690;2023-07-08T04:36:46;100586.73;;;21.03;36.19
80620;BME280;69979;53.682;-2.690;2023-07-08T04:39:11;100586.84;;;20.77;36.47
80620;BME280;69979;53.682;-2.690;2023-07-08T04:41:37;100592.61;;;21.16;36.07
80620;BME280;69979;53.682;-2.690;2023-07-08T04:44:02;100593.94;;;20.39;36.93
80620;BME280;69979;53.682;-2.690;2023-07-08T04:46:31;100607.27;;;20.51;36.90
80620;BME280;69979;53.682;-2.690;2023-07-08T04:48:52;100601.36;;;20.66;37.21
80620;BME280;69979;53.682;-2.690;2023-07-08T04:51:18;100599.65;;;20.59;36.94
80620;BME280;69979;53.682;-2.690;2023-07-08T04:53:43;100600.53;;;20.51;36.73
80620;BME280;69979;53.682;-2.690;2023-07-08T04:56:08;100604.48;;;21.14;36.04
80620;BME280;69979;53.682;-2.690;2023-07-08T04:58:33;100587.43;;;20.61;36.74
80620;BME280;69979;53.682;-2.690;2023-07-08T05:00:59;100595.39;;;20.95;36.23
80620;BME280;69979;53.682;-2.690;2023-07-08T05:03:24;100600.72;;;20.28;38.04
80620;BME280;69979;53.682;-2.690;2023-07-08T05:05:49;100589.04;;;20.60;37.86
80620;BME280;69979;53.682;-2.690;2023-07-08T05:08:15;100592.10;;;20.12;38.22
80620;BME280;69979;53.682;-2.690;2023-07-08T05:10:40;100589.87;;;21.00;36.83
80620;BME280;69979;53.682;-2.690;2023-07-08T05:13:05;100592.04;;;20.82;36.77
80620;BME280;69979;53.682;-2.690;2023-07-08T05:15:31;100597.98;;;20.56;37.30
80620;BME280;69979;53.682;-2.690;2023-07-08T05:17:56;100592.54;;;20.93;36.41
80620;BME280;69979;53.682;-2.690;2023-07-08T05:20:22;100593.16;;;20.71;36.95
80620;BME280;69979;53.682;-2.690;2023-07-08T05:22:47;100598.86;;;20.94;36.63
80620;BME280;69979;53.682;-2.690;2023-07-08T05:25:13;100604.81;;;20.86;36.89
80620;BME280;69979;53.682;-2.690;2023-07-08T05:27:37;100607.59;;;21.67;35.67
80620;BME280;69979;53.682;-2.690;2023-07-08T05:30:04;100599.68;;;21.56;35.53
80620;BME280;69979;53.682;-2.690;2023-07-08T05:32:28;100608.50;;;21.23;36.00
80620;BME280;69979;53.682;-2.690;2023-07-08T05:34:53;100608.15;;;21.01;36.69
80620;BME280;69979;53.682;-2.690;2023-07-08T05:37:18;100605.32;;;21.19;36.36
80620;BME280;69979;53.682;-2.690;2023-07-08T05:39:44;100611.24;;;20.61;37.07
80620;BME280;69979;53.682;-2.690;2023-07-08T05:42:09;100614.21;;;21.30;36.28
80620;BME280;69979;53.682;-2.690;2023-07-08T05:44:34;100617.09;;;20.92;36.12
80620;BME280;69979;53.682;-2.690;2023-07-08T05:46:59;100611.27;;;20.58;37.26
80620;BME280;69979;53.682;-2.690;2023-07-08T05:49:25;100609.25;;;20.98;36.93
80620;BME280;69979;53.682;-2.690;2023-07-08T05:51:50;100615.39;;;20.70;37.22
80620;BME280;69979;53.682;-2.690;2023-07-08T05:54:15;100616.70;;;21.18;36.46
80620;BME280;69979;53.682;-2.690;2023-07-08T05:56:41;100617.17;;;20.59;37.41
80620;BME280;69979;53.682;-2.690;2023-07-08T05:59:06;100620.44;;;20.33;38.32
80620;BME280;69979;53.682;-2.690;2023-07-08T06:01:32;100638.54;;;20.09;38.39
80620;BME280;69979;53.682;-2.690;2023-07-08T06:03:57;100642.07;;;20.69;37.77
80620;BME280;69979;53.682;-2.690;2023-07-08T06:06:22;100640.74;;;20.07;38.86
80620;BME280;69979;53.682;-2.690;2023-07-08T06:08:47;100642.24;;;20.54;37.93
80620;BME280;69979;53.682;-2.690;2023-07-08T06:11:13;100649.84;;;20.99;37.31
80620;BME280;69979;53.682;-2.690;2023-07-08T06:13:38;100639.99;;;21.04;37.20
80620;BME280;69979;53.682;-2.690;2023-07-08T06:16:04;100641.05;;;20.59;37.93
80620;BME280;69979;53.682;-2.690;2023-07-08T06:18:28;100637.75;;;21.17;37.33
80620;BME280;69979;53.682;-2.690;2023-07-08T06:20:54;100640.00;;;20.64;37.71
80620;BME280;69979;53.682;-2.690;2023-07-08T06:23:19;100642.59;;;21.13;37.26
80620;BME280;69979;53.682;-2.690;2023-07-08T06:25:44;100642.26;;;21.06;37.36
80620;BME280;69979;53.682;-2.690;2023-07-08T06:28:09;100646.68;;;20.16;39.69
80620;BME280;69979;53.682;-2.690;2023-07-08T06:30:34;100655.91;;;19.94;39.18
80620;BME280;69979;53.682;-2.690;2023-07-08T06:33:00;100652.34;;;20.95;38.19
80620;BME280;69979;53.682;-2.690;2023-07-08T06:35:25;100656.85;;;21.10;37.83
80620;BME280;69979;53.682;-2.690;2023-07-08T06:37:50;100659.90;;;21.09;37.82
80620;BME280;69979;53.682;-2.690;2023-07-08T06:40:15;100660.70;;;20.97;38.11
80620;BME280;69979;53.682;-2.690;2023-07-08T06:42:41;100660.60;;;21.35;37.98
80620;BME280;69979;53.682;-2.690;2023-07-08T06:45:07;100664.60;;;20.80;38.52
80620;BME280;69979;53.682;-2.690;2023-07-08T06:47:31;100668.51;;;21.69;37.29
80620;BME280;69979;53.682;-2.690;2023-07-08T06:49:57;100666.53;;;21.33;37.88
80620;BME280;69979;53.682;-2.690;2023-07-08T06:52:22;100667.85;;;21.05;38.15
80620;BME280;69979;53.682;-2.690;2023-07-08T06:54:47;100666.40;;;21.48;37.87
80620;BME280;69979;53.682;-2.690;2023-07-08T06:57:12;100673.20;;;21.58;37.85
80620;BME280;69979;53.682;-2.690;2023-07-08T06:59:38;100669.90;;;21.03;38.24
80620;BME280;69979;53.682;-2.690;2023-07-08T07:02:03;100679.59;;;21.47;38.28
80620;BME280;69979;53.682;-2.690;2023-07-08T07:04:28;100689.51;;;22.00;37.65
80620;BME280;69979;53.682;-2.690;2023-07-08T07:06:54;100689.46;;;21.36;38.12
80620;BME280;69979;53.682;-2.690;2023-07-08T07:09:19;100695.99;;;21.91;38.07
80620;BME280;69979;53.682;-2.690;2023-07-08T07:11:44;100694.86;;;21.65;38.18
80620;BME280;69979;53.682;-2.690;2023-07-08T07:14:09;100697.06;;;22.26;37.97
80620;BME280;69979;53.682;-2.690;2023-07-08T07:16:34;100710.55;;;22.21;38.48
80620;BME280;69979;53.682;-2.690;2023-07-08T07:19:00;100711.14;;;22.11;38.21
80620;BME280;69979;53.682;-2.690;2023-07-08T07:21:27;100709.99;;;21.41;39.55
80620;BME280;69979;53.682;-2.690;2023-07-08T07:23:50;100703.99;;;21.48;39.57
80620;BME280;69979;53.682;-2.690;2023-07-08T07:26:16;100706.46;;;21.70;39.25
80620;BME280;69979;53.682;-2.690;2023-07-08T07:28:41;100700.20;;;21.99;39.27
80620;BME280;69979;53.682;-2.690;2023-07-08T07:31:06;100699.77;;;22.66;38.42
80620;BME280;69979;53.682;-2.690;2023-07-08T07:33:32;100692.19;;;21.59;39.11
80620;BME280;69979;53.682;-2.690;2023-07-08T07:35:57;100691.71;;;22.00;38.62
80620;BME280;69979;53.682;-2.690;2023-07-08T07:38:23;100684.83;;;21.53;39.09
80620;BME280;69979;53.682;-2.690;2023-07-08T07:40:51;100678.24;;;21.36;39.99
80620;BME280;69979;53.682;-2.690;2023-07-08T07:43:13;100684.50;;;21.92;39.63
80620;BME280;69979;53.682;-2.690;2023-07-08T07:45:39;100678.97;;;21.21;39.89
80620;BME280;69979;53.682;-2.690;2023-07-08T07:48:04;100679.33;;;21.63;40.08
80620;BME280;69979;53.682;-2.690;2023-07-08T07:50:30;100677.56;;;22.08;40.02
80620;BME280;69979;53.682;-2.690;2023-07-08T07:52:55;100683.32;;;21.84;39.77
80620;BME280;69979;53.682;-2.690;2023-07-08T07:55:20;100678.93;;;22.28;39.45
80620;BME280;69979;53.682;-2.690;2023-07-08T07:57:45;100687.36;;;22.00;39.78
80620;BME280;69979;53.682;-2.690;2023-07-08T08:00:11;100689.47;;;21.82;40.29
80620;BME280;69979;53.682;-2.690;2023-07-08T08:02:36;100697.51;;;21.95;40.22
80620;BME280;69979;53.682;-2.690;2023-07-08T08:05:01;100707.13;;;22.37;39.86
80620;BME280;69979;53.682;-2.690;2023-07-08T08:07:26;100704.54;;;22.17;39.88
80620;BME280;69979;53.682;-2.690;2023-07-08T08:09:51;100707.78;;;21.74;40.66
80620;BME280;69979;53.682;-2.690;2023-07-08T08:12:17;100711.15;;;22.12;39.67
80620;BME280;69979;53.682;-2.690;2023-07-08T08:14:42;100717.93;;;22.47;39.45
80620;BME280;69979;53.682;-2.690;2023-07-08T08:17:08;100718.08;;;22.26;39.74
80620;BME280;69979;53.682;-2.690;2023-07-08T08:19:33;100725.88;;;23.24;38.53
80620;BME280;69979;53.682;-2.690;2023-07-08T08:21:58;100727.69;;;23.17;38.56
80620;BME280;69979;53.682;-2.690;2023-07-08T08:24:24;100727.22;;;22.09;40.26
80620;BME280;69979;53.682;-2.690;2023-07-08T08:26:49;100726.44;;;21.95;40.49
80620;BME280;69979;53.682;-2.690;2023-07-08T08:29:14;100727.86;;;22.25;40.49
80620;BME280;69979;53.682;-2.690;2023-07-08T08:31:40;100732.38;;;22.50;40.36
80620;BME280;69979;53.682;-2.690;2023-07-08T08:34:05;100742.61;;;22.88;39.75
80620;BME280;69979;53.682;-2.690;2023-07-08T08:36:30;100755.49;;;22.85;39.53
80620;BME280;69979;53.682;-2.690;2023-07-08T08:38:55;100762.52;;;23.30;39.30
80620;BME280;69979;53.682;-2.690;2023-07-08T08:41:27;100763.10;;;22.70;39.68
80620;BME280;69979;53.682;-2.690;2023-07-08T08:43:47;100770.53;;;22.58;39.82
80620;BME280;69979;53.682;-2.690;2023-07-08T08:46:19;100781.90;;;23.43;38.97
80620;BME280;69979;53.682;-2.690;2023-07-08T08:48:41;100786.83;;;22.95;39.30
80620;BME280;69979;53.682;-2.690;2023-07-08T08:51:06;100793.98;;;22.36;40.70
80620;BME280;69979;53.682;-2.690;2023-07-08T08:53:27;100798.41;;;22.84;39.56
80620;BME280;69979;53.682;-2.690;2023-07-08T08:55:56;100805.62;;;22.05;40.55
80620;BME280;69979;53.682;-2.690;2023-07-08T08:58:26;100813.25;;;22.51;40.10
80620;BME280;69979;53.682;-2.690;2023-07-08T09:00:53;100820.38;;;22.29;40.45
80620;BME280;69979;53.682;-2.690;2023-07-08T09:03:12;100832.97;;;22.89;39.51
80620;BME280;69979;53.682;-2.690;2023-07-08T09:05:33;100840.45;;;23.19;39.64
80620;BME280;69979;53.682;-2.690;2023-07-08T09:08:03;100842.79;;;22.58;40.10
80620;BME280;69979;53.682;-2.690;2023-07-08T09:10:33;100850.86;;;23.17;39.45
80620;BME280;69979;53.682;-2.690;2023-07-08T09:12:51;100849.76;;;22.53;39.26
80620;BME280;69979;53.682;-2.690;2023-07-08T09:15:15;100845.50;;;22.45;39.91
80620;BME280;69979;53.682;-2.690;2023-07-08T09:17:40;100845.51;;;22.33;39.41
80620;BME280;69979;53.682;-2.690;2023-07-08T09:20:15;100846.19;;;22.45;39.46
80620;BME280;69979;53.682;-2.690;2023-07-08T09:22:35;100851.47;;;23.27;38.17
80620;BME280;69979;53.682;-2.690;2023-07-08T09:25:01;100847.83;;;22.85;38.88
80620;BME280;69979;53.682;-2.690;2023-07-08T09:27:22;100845.56;;;23.37;38.62
80620;BME280;69979;53.682;-2.690;2023-07-08T09:29:47;100849.02;;;23.54;37.55
80620;BME280;69979;53.682;-2.690;2023-07-08T09:32:16;100849.92;;;23.38;38.21
80620;BME280;69979;53.682;-2.690;2023-07-08T09:34:44;100845.91;;;23.32;37.83
80620;BME280;69979;53.682;-2.690;2023-07-08T09:39:29;100842.24;;;24.04;36.72
80620;BME280;69979;53.682;-2.690;2023-07-08T09:41:54;100839.55;;;24.57;36.19
80620;BME280;69979;53.682;-2.690;2023-07-08T09:44:23;100843.49;;;24.85;35.86
80620;BME280;69979;53.682;-2.690;2023-07-08T09:46:46;100853.71;;;24.86;35.27
80620;BME280;69979;53.682;-2.690;2023-07-08T09:49:18;100854.33;;;24.91;34.90
80620;BME280;69979;53.682;-2.690;2023-07-08T09:51:37;100861.16;;;24.65;35.43
80620;BME280;69979;53.682;-2.690;2023-07-08T09:54:02;100855.55;;;24.77;35.02
80620;BME280;69979;53.682;-2.690;2023-07-08T09:56:27;100862.74;;;24.95;35.47
80620;BME280;69979;53.682;-2.690;2023-07-08T09:58:53;100863.28;;;24.45;35.66
80620;BME280;69979;53.682;-2.690;2023-07-08T10:01:20;100864.58;;;23.82;36.31
80620;BME280;69979;53.682;-2.690;2023-07-08T10:03:43;100866.94;;;24.48;36.22
80620;BME280;69979;53.682;-2.690;2023-07-08T10:06:16;100879.49;;;24.58;36.13
80620;BME280;69979;53.682;-2.690;2023-07-08T10:08:40;100880.44;;;24.49;36.41
80620;BME280;69979;53.682;-2.690;2023-07-08T10:11:02;100895.24;;;23.90;36.66
80620;BME280;69979;53.682;-2.690;2023-07-08T10:13:33;100897.13;;;23.07;37.50
80620;BME280;69979;53.682;-2.690;2023-07-08T10:15:54;100898.28;;;24.25;36.24
80620;BME280;69979;53.682;-2.690;2023-07-08T10:18:16;100900.84;;;23.54;36.78
80620;BME280;69979;53.682;-2.690;2023-07-08T10:20:50;100904.25;;;23.90;36.82
80620;BME280;69979;53.682;-2.690;2023-07-08T10:23:14;100905.98;;;24.14;36.44
80620;BME280;69979;53.682;-2.690;2023-07-08T10:25:37;100911.19;;;24.02;36.88
80620;BME280;69979;53.682;-2.690;2023-07-08T10:28:00;100917.42;;;23.87;36.45
80620;BME280;69979;53.682;-2.690;2023-07-08T10:30:23;100918.13;;;24.65;34.90
80620;BME280;69979;53.682;-2.690;2023-07-08T10:33:03;100929.84;;;24.37;35.83
80620;BME280;69979;53.682;-2.690;2023-07-08T10:35:16;100938.75;;;24.12;36.03
80620;BME280;69979;53.682;-2.690;2023-07-08T10:37:51;100941.48;;;23.72;36.41
80620;BME280;69979;53.682;-2.690;2023-07-08T10:40:14;100946.88;;;24.43;36.49
80620;BME280;69979;53.682;-2.690;2023-07-08T10:42:38;100939.84;;;23.22;36.81
80620;BME280;69979;53.682;-2.690;2023-07-08T10:44:57;100946.14;;;24.08;36.52
80620;BME280;69979;53.682;-2.690;2023-07-08T10:47:31;100943.06;;;24.55;35.85
80620;BME280;69979;53.682;-2.690;2023-07-08T10:49:55;100938.25;;;25.03;34.85
80620;BME280;69979;53.682;-2.690;2023-07-08T10:52:26;100938.03;;;24.67;34.91
80620;BME280;69979;53.682;-2.690;2023-07-08T10:54:50;100950.98;;;24.57;35.24
80620;BME280;69979;53.682;-2.690;2023-07-08T10:57:10;100956.96;;;23.80;37.08
80620;BME280;69979;53.682;-2.690;2023-07-08T10:59:41;100949.94;;;23.65;36.76
80620;BME280;69979;53.682;-2.690;2023-07-08T11:02:02;100957.36;;;23.97;36.19
80620;BME280;69979;53.682;-2.690;2023-07-08T11:04:26;100967.73;;;23.94;37.07
80620;BME280;69979;53.682;-2.690;2023-07-08T11:06:47;100981.27;;;23.37;37.63
80620;BME280;69979;53.682;-2.690;2023-07-08T11:09:07;100994.49;;;23.93;37.23
80620;BME280;69979;53.682;-2.690;2023-07-08T11:11:36;101001.20;;;23.65;37.60
80620;BME280;69979;53.682;-2.690;2023-07-08T11:14:01;101010.53;;;23.91;38.35
80620;BME280;69979;53.682;-2.690;2023-07-08T11:16:25;101011.70;;;23.85;37.94
80620;BME280;69979;53.682;-2.690;2023-07-08T11:18:52;101016.81;;;23.80;38.21
80620;BME280;69979;53.682;-2.690;2023-07-08T11:21:16;101025.02;;;22.95;39.96
80620;BME280;69979;53.682;-2.690;2023-07-08T11:23:40;101028.84;;;23.23;39.98
80620;BME280;69979;53.682;-2.690;2023-07-08T11:26:11;101024.29;;;23.67;39.83
80620;BME280;69979;53.682;-2.690;2023-07-08T11:28:29;101031.73;;;23.14;40.97
80620;BME280;69979;53.682;-2.690;2023-07-08T11:30:56;101030.09;;;23.33;40.71
80620;BME280;69979;53.682;-2.690;2023-07-08T11:33:24;101031.80;;;23.65;41.00
80620;BME280;69979;53.682;-2.690;2023-07-08T11:35:49;101040.85;;;23.65;41.63
80620;BME280;69979;53.682;-2.690;2023-07-08T11:38:13;101044.58;;;23.75;41.05
80620;BME280;69979;53.682;-2.690;2023-07-08T11:40:50;101042.68;;;24.28;40.02
80620;BME280;69979;53.682;-2.690;2023-07-08T11:43:03;101044.01;;;24.04;40.20
80620;BME280;69979;53.682;-2.690;2023-07-08T11:45:31;101043.70;;;23.70;41.03
80620;BME280;69979;53.682;-2.690;2023-07-08T11:47:51;101046.32;;;24.02;41.84
80620;BME280;69979;53.682;-2.690;2023-07-08T11:50:20;101038.55;;;24.66;40.95
80620;BME280;69979;53.682;-2.690;2023-07-08T11:52:51;101030.28;;;24.72;40.72
80620;BME280;69979;53.682;-2.690;2023-07-08T11:55:15;101027.59;;;24.58;41.42
80620;BME280;69979;53.682;-2.690;2023-07-08T11:57:38;101022.23;;;25.09;40.47
80620;BME280;69979;53.682;-2.690;2023-07-08T12:00:14;101014.36;;;25.49;40.11
80620;BME280;69979;53.682;-2.690;2023-07-08T12:02:23;101014.63;;;24.96;40.92
80620;BME280;69979;53.682;-2.690;2023-07-08T12:04:57;100995.89;;;25.01;41.17
80620;BME280;69979;53.682;-2.690;2023-07-08T12:07:17;100992.03;;;25.13;41.24
80620;BME280;69979;53.682;-2.690;2023-07-08T12:09:45;101005.32;;;24.47;43.53
80620;BME280;69979;53.682;-2.690;2023-07-08T12:12:10;101012.04;;;24.41;43.23
80620;BME280;69979;53.682;-2.690;2023-07-08T12:14:30;101017.49;;;24.06;43.22
80620;BME280;69979;53.682;-2.690;2023-07-08T12:16:55;101019.86;;;24.15;43.43
80620;BME280;69979;53.682;-2.690;2023-07-08T12:19:22;101022.37;;;23.81;43.81
80620;BME280;69979;53.682;-2.690;2023-07-08T12:21:45;101029.19;;;24.17;44.26
80620;BME280;69979;53.682;-2.690;2023-07-08T12:24:13;101031.52;;;23.84;44.56
80620;BME280;69979;53.682;-2.690;2023-07-08T12:26:36;101026.23;;;24.02;43.99
80620;BME280;69979;53.682;-2.690;2023-07-08T12:29:01;101027.84;;;23.64;45.00
80620;BME280;69979;53.682;-2.690;2023-07-08T12:31:27;101031.27;;;23.89;44.13
80620;BME280;69979;53.682;-2.690;2023-07-08T12:33:52;101033.88;;;24.14;43.26